Latest Conditions
At L.F.Wade Int. Airport
Recorded at 12:55 am
Mostly Cloudy
Temp.: 
23°C/73°F
Humidity: 
61%
Wind: 
NNE 6KT
or 7mph
UV Index: 
0
Island Observations
 
Observations
Sunday, October 20, 2019

Observations are in local time and taken at least once an hour, or upon the start and end of specified events such as showers and thunderstorms.

Time Sky / Weather Wind Speed/Gusts Temp. R.H. Pressure
     knots (mph)  °C (°F)  %  mb / "Hg
 00:55 Mostly Cloudy  NNE 6/0 (7/0) 23(73) 61 1019 / 30.09
 23:55 Mostly Cloudy  ENE 6/0 (7/0) 23(73) 66 1019 / 30.10
 22:55 Mostly Cloudy  NNE 8/0 (9/0) 23(73) 63 1019 / 30.08
 21:55 Mostly Cloudy  N 6/0 (7/0) 23(73) 65 1018 / 30.07
 20:55 Mostly Cloudy  N 8/0 (9/0) 23(73) 60 1018 / 30.06
 19:55 Mostly Cloudy  N 8/0 (9/0) 23(73) 63 1017 / 30.04
 18:55 Mostly Cloudy  NNW 10/0 (12/0) 23(73) 61 1017 / 30.03
 17:55 Mostly Cloudy  N 13/0 (15/0) 23(74) 61 1016 / 30.01
 16:55 Partly Cloudy  NNW 10/0 (12/0) 24(75) 60 1016 / 30.01
 15:55 Partly Cloudy  NW 11/0 (13/0) 24(75) 55 1016 / 30.00
 14:55 Mostly Cloudy  NW 13/0 (15/0) 24(76) 58 1016 / 29.99
 13:55 Mostly Cloudy  NW 14/0 (16/0) 24(76) 51 1016 / 29.99
 12:55 Partly Cloudy  NW 13/0 (15/0) 24(76) 49 1016 / 30.01
 11:55 Partly Cloudy  NW 13/0 (15/0) 24(75) 59 1016 / 30.00
 10:55 Partly Cloudy  NNW 11/0 (13/0) 24(75) 59 1016 / 29.99
 09:55 Partly Cloudy  NW 14/0 (16/0) 24(74) 58 1015 / 29.98
 08:55 Partly Cloudy  NNW 11/0 (13/0) 23(73) 63 1014 / 29.95
 07:55 Partly Cloudy  NW 14/0 (16/0) 22(72) 63 1014 / 29.94
 06:55 Partly Cloudy  NW 16/0 (18/0) 23(73) 68 1013 / 29.91
 05:55 Mostly Cloudy  NW 15/0 (17/0) 23(73) 68 1012 / 29.89
 04:55 Partly Cloudy  WNW 14/0 (16/0) 23(73) 67 1012 / 29.88
 03:55 Partly Cloudy  W 14/0 (16/0) 23(74) 61 1012 / 29.88
 02:55 Mostly Cloudy  W 14/0 (16/0) 23(74) 60 1012 / 29.89
 01:55 Partly Cloudy  W 13/0 (15/0) 23(74) 61 1012 / 29.89
 00:55 Partly Cloudy  WNW 10/0 (12/0) 24(74) 61 1013 / 29.90
 23:55 Mostly Cloudy  WNW 12/0 (14/0) 24(74) 64 1013 / 29.91
 22:55 Mostly Cloudy  NW 10/0 (12/0) 24(74) 64 1013 / 29.91
 21:55 Overcast Showers WNW 5/0 (6/0) 24(74) 66 1012 / 29.89
 21:43 Overcast Showers NW 8/0 (9/0) 23(73) 69 1012 / 29.89
 21:38 Overcast Showers NW 10/0 (12/0) 24(75) 82 1013 / 29.90
 20:55 Overcast  WNW 7/0 (8/0) 24(74) 67 1012 / 29.89
 19:55 Mostly Cloudy  WNW 8/0 (9/0) 24(74) 67 1012 / 29.87
 18:55 Mostly Cloudy  WNW 9/0 (10/0) 24(76) 62 1011 / 29.86
 17:55 Mostly Cloudy  W 11/0 (13/0) 24(76) 62 1011 / 29.86
 16:55 Mostly Cloudy  W 12/0 (14/0) 24(76) 65 1011 / 29.85
 15:55 Mostly Cloudy  W 13/0 (15/0) 25(76) 63 1010 / 29.84
 14:55 Mostly Cloudy  W 13/0 (15/0) 25(77) 63 1010 / 29.84
 13:55 Mostly Cloudy  W 13/0 (15/0) 25(76) 66 1011 / 29.85
 12:55 Overcast  WNW 12/0 (14/0) 24(76) 71 1012 / 29.87
 11:55 Overcast  WNW 10/0 (12/0) 24(76) 71 1012 / 29.88
 10:55 Overcast  NW 11/0 (13/0) 24(76) 71 1012 / 29.88
 09:55 Overcast  NW 10/0 (12/0) 24(76) 74 1012 / 29.87
 08:55 Overcast  NW 11/0 (13/0) 24(76) 76 1011 / 29.85
 08:26 Mostly Cloudy Showers NW 7/0 (8/0) 23(74) 85 1010 / 29.84
 08:04 Overcast Showers NW 6/0 (7/0) 24(75) 86 1010 / 29.84
 07:55 Overcast Showers NW 8/0 (9/0) 24(75) 87 1010 / 29.83
 06:55 Mostly Cloudy  WNW 7/0 (8/0) 24(74) 86 1009 / 29.81
 06:28 Overcast Showers NW 12/0 (14/0) 23(73) 90 1009 / 29.81
 06:18 Mostly Cloudy Showers NW 12/0 (14/0) 23(73) 90 1010 / 29.82
 06:09 Mostly Cloudy Showers NW 10/0 (12/0) 24(75) 82 1009 / 29.81
 06:03 Mostly Cloudy  NW 12/0 (14/0) 24(76) 78 1009 / 29.80
 05:55 Mostly Cloudy  WSW 7/0 (8/0) 25(77) 87 1009 / 29.80
 04:55 Mostly Cloudy  SSW 8/0 (9/0) 25(76) 90 1009 / 29.79
 03:55 Mostly Cloudy  SW 8/0 (9/0) 24(76) 91 1009 / 29.79
 02:55 Overcast  SW 8/0 (9/0) 24(76) 91 1009 / 29.80
 01:55 Overcast  SW 4/0 (5/0) 25(77) 88 1009 / 29.81
 01:39 Overcast  SSW 4/0 (5/0) 25(77) 89 1010 / 29.82
 01:09 Mostly Cloudy Thunderstorm VRB 2/0 (2/0) 25(76) 92 1009 / 29.81
 00:55 Mostly Cloudy  SSW 2/0 (2/0) 25(76) 90 1009 / 29.81
 23:55 Mostly Cloudy  WSW 5/0 (6/0) 25(77) 89 1010 / 29.83
 22:55 Overcast  W 6/0 (7/0) 25(77) 88 1010 / 29.83
 21:55 Overcast  W 8/0 (9/0) 25(77) 85 1010 / 29.83
 20:55 Overcast Showers WSW 11/0 (13/0) 25(78) 88 1010 / 29.82
 20:17 Overcast  WSW 14/0 (16/0) 25(78) 89 1009 / 29.81
 19:55 Overcast  WSW 15/0 (17/0) 25(78) 87 1009 / 29.80
 18:59 Overcast Showers W 10/0 (12/0) 25(76) 93 1009 / 29.80
 18:55 Overcast Showers W 12/0 (14/0) 24(76) 95 1009 / 29.80
 17:58 Overcast Showers W 17/0 (20/0) 24(76) 93 1009 / 29.80
 17:55 Overcast Showers W 18/0 (21/0) 24(76) 93 1009 / 29.80
 17:48 Overcast Showers WSW 18/0 (21/0) 24(76) 91 1009 / 29.80
 17:43 Overcast Showers W 21/0 (24/0) 25(77) 87 1009 / 29.80
 17:37 Overcast Showers SW 18/0 (21/0) 26(80) 80 1009 / 29.79
 16:55 Mostly Cloudy  SW 18/0 (21/0) 27(81) 74 1008 / 29.78
 15:55 Mostly Cloudy  SW 23/0 (26/0) 27(81) 74 1008 / 29.78
 14:55 Partly Cloudy  SW 23/0 (26/0) 28(82) 70 1009 / 29.79
 13:55 Mostly Cloudy  SW 21/0 (24/0) 28(82) 68 1009 / 29.80
 12:55 Mostly Cloudy  SW 21/0 (24/0) 27(81) 69 1009 / 29.81
 11:55 Mostly Cloudy  SW 17/0 (20/0) 28(82) 70 1010 / 29.83
 11:32 Mostly Cloudy Showers SW 20/0 (23/0) 28(82) 72 1010 / 29.84
 11:19 Mostly Cloudy Showers SW 20/0 (23/0) 27(81) 73 1010 / 29.84
 10:55 Mostly Cloudy  SW 21/0 (24/0) 27(81) 73 1010 / 29.84
 09:55 Mostly Cloudy  SW 21/0 (24/0) 26(78) 77 1010 / 29.84
 08:55 Mostly Cloudy  SW 17/0 (20/0) 25(78) 76 1010 / 29.84
 07:55 Mostly Cloudy  SW 16/0 (18/0) 25(76) 75 1010 / 29.83
 06:55 Mostly Cloudy  SW 16/0 (18/0) 24(76) 73 1010 / 29.82
 06:32 Mostly Cloudy Showers SW 13/0 (15/0) 24(76) 75 1010 / 29.82
 06:16 Mostly Cloudy Showers SW 15/0 (17/0) 25(76) 80 1009 / 29.81
 05:55 Mostly Cloudy  SSW 13/0 (15/0) 24(76) 77 1009 / 29.81
 04:55 Mostly Cloudy  SW 12/0 (14/0) 24(76) 77 1009 / 29.81
 03:55 Partly Cloudy  SW 12/0 (14/0) 24(76) 74 1010 / 29.83
 02:55 Partly Cloudy  SW 12/0 (14/0) 24(76) 77 1011 / 29.86
 01:55 Partly Cloudy  SSW 12/0 (14/0) 24(76) 76 1012 / 29.88
 00:55 Partly Cloudy  SSW 9/0 (10/0) 24(76) 79 1012 / 29.89
 23:55 Mostly Cloudy  SSW 9/0 (10/0) 24(76) 77 1013 / 29.91
 22:55 Mostly Cloudy  SSW 8/0 (9/0) 24(76) 75 1013 / 29.92
 21:55 Mostly Cloudy  SSW 8/0 (9/0) 24(76) 75 1013 / 29.92
 20:55 Partly Cloudy  S 8/0 (9/0) 24(76) 74 1013 / 29.92
 19:55 Partly Cloudy  S 7/0 (8/0) 24(76) 74 1013 / 29.92
 18:55 Partly Cloudy  S 8/0 (9/0) 25(76) 74 1013 / 29.92
 17:55 Mostly Cloudy  S 7/0 (8/0) 25(77) 73 1014 / 29.93
Island AWOS